Decoded Metar for CYOW (OTTAWA in ON, CANADA) (IATA:YOW) | Meteo·Mobile Aviation Weather
aviador You're here:

CYOW Decoded Metar

OTTAWA in ON, CANADA
Report Time2018-10-19 20:00:00
UTC Time2018-10-19 20:14:44
Flight Rules vfr VFR
Wind200° at 11 Gusting to 24 kt
W.Decomp.*RWY 22: 10.9 kt HW 1.1 kt LCW
RWY 25: 8.9 kt HW 6.5 kt LCW
RWY 14: 3.0 kt HW 10.6 kt RCW
W.Rank200° ranks 3
Current wind is above 200° avg. (7.4)
Visibility9999 m
Phenomena:N/A
Clouds:Few 160 Hf
Few 200 Hf
Broken 250 Hf
Expected CloudBase > 4,000 ft AGL from Temp-Dew spread
Ceiling25,000 ft
Temp15°C (ISA +1)
Dew Point05°C (51% RH)
AAT9.9°C
QNH1008 hPa
Density Alt751 ft
Elevation374 ft
Report Wrong Elevation
Raw Report
CYOW 192000Z 20011G24KT 15SM FEW160 FEW200 BKN250 15/05 A2978 RMK
AC1CI1CI5 AC TR SLP090 DENSITY ALT 600FT=

Extra information for CYOW:More info

Metar Taf Metar & Taf Last 4 Metars F.Rules Stats Wind Profile Meteogram Temp Stats Airport Information Weather charts Add Link Nearby VenuesMetar ALERT Operation Metar Decoded Social comments